Pagrindinis puslapis
METAR-TAF:

METAR-TAF

Oro uostai :

Havana, Kuba

platuma: 22-59N, ilguma: 082-24W, Aukštis: 59 m

Dabartinis oras

Ataskaita buvo paskelbta 42 minutes, ne 21:55 UTC
Vėjas 13 kt iš Rytų/Šiaurės Rytų
Temperatūra 28°C
Drėgmė 66%
Slėgis 1015 hPa
Matomumas: 9000 m
Su prošvaistėmis ne aukštis 3000 ft

METAR: MUHA 172155Z 07013KT 9000 BKN030 28/21 Q1015

Laikas: 18:37 (22:37 UTC)

Prognozė

Ataskaita buvo paskelbta 5 valandos ir 37 minutes, ne 17:00 UTC
Prognozė galioja nuo 17 metu 18 UTC su 18 metu 18 UTC
Vėjas 13 kt iš Rytų/Šiaurės Rytų
Matomumas: 9000 m
Išsisklaidę debesys ne aukštis 3000 ft
Laikinai
nuo 17 metu 20 UTC su 18 metu 00 UTC
Matomumas: 5000 m
Mažai debesys ne aukštis 2000 ft, Liūtiniai kamuoliniai debesys.
Su prošvaistėmis ne aukštis 3000 ft
lietus
Tapsmas
nuo 18 metu 03 UTC su 18 metu 05 UTC
Vėjas 3 kt iš Rytų
Mažai debesys ne aukštis 3000 ft

TAF: MUHA 171700Z 1718/1818 07013KT 9000 SCT030 TEMPO 1720/1800 5000 SHRA FEW020CB BKN030 BECMG 1803/1805 09003KT FEW030

Orai ataskaitas ir orų prognozės (METAR, TAF).

turimą stotys yra geltonos ir raudonos taškus žemėlapyje.

Perkelti pele per norėdami pamatyti stoties vardą.

Tada spustelėkite, norėdami matyti oro stebėjimo ir prognozės.

Norėdami pakeisti žemėlapį: spustelėkite ant žalios mygtukų su juodo kryžiaus žemyn,; žalią mygtuką su brūkšneliu, jei norite nutolinti; arba žalių rodyklių gretimoms žemėlapius.


METAR-TAF: